Time;durP1;ratioP1;P1;durP2;ratioP2;P2;SDS_P1;SDS_P2;PMS_P1;PMS_P2;Temp;Humidity;BMP_temperature;BMP_pressure;BME280_temperature;BME280_humidity;BME280_pressure;Samples;Min_cycle;Max_cycle;Signal;HPM_P1;HPM_P2
2021/07/18 00:01:27;;;;;;;14.55;5.32;;;17.60;99.90;;;;;;5019061;28;25056;-72
2021/07/18 00:03:54;;;;;;;11.63;5.70;;;17.60;99.90;;;;;;5036825;28;25141;-73
2021/07/18 00:06:20;;;;;;;9.98;5.38;;;17.60;99.90;;;;;;5025185;28;25119;-73
2021/07/18 00:08:45;;;;;;;12.77;5.20;;;17.60;99.90;;;;;;5028276;28;25092;-73
2021/07/18 00:11:11;;;;;;;8.55;5.15;;;17.60;99.90;;;;;;5034453;28;25085;-74
2021/07/18 00:13:37;;;;;;;8.25;5.35;;;17.60;99.90;;;;;;5025109;28;25058;-72
2021/07/18 00:16:02;;;;;;;11.52;5.40;;;17.60;99.90;;;;;;5006053;28;25096;-73
2021/07/18 00:18:28;;;;;;;12.90;5.97;;;17.60;99.90;;;;;;5026918;28;25137;-71
2021/07/18 00:20:54;;;;;;;11.65;5.30;;;17.60;99.90;;;;;;5028643;28;25124;-71
2021/07/18 00:23:20;;;;;;;7.63;5.03;;;17.60;99.90;;;;;;5028555;28;25146;-74
2021/07/18 00:25:45;;;;;;;8.70;5.53;;;17.60;99.90;;;;;;5026566;28;25138;-72
2021/07/18 00:28:11;;;;;;;7.78;5.10;;;17.60;99.90;;;;;;5025697;28;25128;-73
2021/07/18 00:30:37;;;;;;;9.65;5.43;;;17.70;99.90;;;;;;5027441;28;25108;-72
2021/07/18 00:33:04;;;;;;;8.70;5.43;;;17.80;99.90;;;;;;5022936;28;25058;-72
2021/07/18 00:35:30;;;;;;;10.60;5.60;;;17.70;99.90;;;;;;5026141;28;25071;-72
2021/07/18 00:37:55;;;;;;;11.35;5.05;;;17.60;99.90;;;;;;5025752;28;25056;-71
2021/07/18 00:40:21;;;;;;;10.98;5.22;;;17.60;99.90;;;;;;5025529;28;25078;-72
2021/07/18 00:42:47;;;;;;;10.52;5.20;;;17.60;99.90;;;;;;5027461;28;25072;-71
2021/07/18 00:45:13;;;;;;;13.15;5.68;;;17.60;99.90;;;;;;5034611;28;25106;-71
2021/07/18 00:47:40;;;;;;;8.52;5.90;;;17.60;99.90;;;;;;5042737;28;25096;-72
2021/07/18 00:50:15;;;;;;;11.13;5.40;;;17.50;99.90;;;;;;5028937;28;25148;-71
2021/07/18 00:52:41;;;;;;;11.60;5.50;;;17.60;99.90;;;;;;5035074;28;25097;-74
2021/07/18 00:55:09;;;;;;;9.90;5.50;;;17.60;99.90;;;;;;5011274;28;25120;-70
2021/07/18 00:57:37;;;;;;;12.45;6.45;;;17.50;99.90;;;;;;5034828;28;25080;-70
2021/07/18 01:00:09;;;;;;;12.25;5.75;;;17.40;99.90;;;;;;5029138;28;25141;-71
2021/07/18 01:02:35;;;;;;;8.25;5.43;;;17.40;99.90;;;;;;5042798;28;25072;-71
2021/07/18 01:05:02;;;;;;;8.60;5.20;;;17.40;99.90;;;;;;5028053;28;25061;-69
2021/07/18 01:07:29;;;;;;;11.52;5.55;;;17.40;99.90;;;;;;5033448;28;25088;-72
2021/07/18 01:09:55;;;;;;;12.38;5.97;;;17.50;99.90;;;;;;5036302;28;25142;-73
2021/07/18 01:12:21;;;;;;;10.13;5.57;;;17.70;99.90;;;;;;5028798;28;25063;-74
2021/07/18 01:14:48;;;;;;;5.85;5.22;;;17.60;99.90;;;;;;5030495;28;25074;-71
2021/07/18 01:17:18;;;;;;;8.68;5.75;;;17.60;99.90;;;;;;5026546;28;25069;-72
2021/07/18 01:19:43;;;;;;;10.77;5.45;;;17.60;99.90;;;;;;5027206;28;25086;-72
2021/07/18 01:22:09;;;;;;;11.95;5.72;;;17.50;99.90;;;;;;5027379;28;25052;-76
2021/07/18 01:24:35;;;;;;;16.52;6.50;;;17.50;99.90;;;;;;5025498;28;25157;-72
2021/07/18 01:27:04;;;;;;;12.18;6.20;;;17.50;99.90;;;;;;5027320;28;25107;-72
2021/07/18 01:29:31;;;;;;;11.95;6.07;;;17.50;99.90;;;;;;5025919;28;25078;-73
2021/07/18 01:31:57;;;;;;;9.15;5.60;;;17.50;99.90;;;;;;5008676;28;25069;-71
2021/07/18 01:34:23;;;;;;;10.68;6.30;;;17.50;99.90;;;;;;5027139;28;25112;-70
2021/07/18 01:36:49;;;;;;;10.52;6.15;;;17.60;99.90;;;;;;5025965;28;25152;-74
2021/07/18 01:39:15;;;;;;;19.02;6.65;;;17.60;99.90;;;;;;5016013;28;25087;-72
2021/07/18 01:41:41;;;;;;;14.13;6.97;;;17.40;99.90;;;;;;5021937;28;25153;-72
2021/07/18 01:44:07;;;;;;;12.57;6.93;;;17.30;99.90;;;;;;5027333;28;25078;-73
2021/07/18 01:46:35;;;;;;;14.68;7.22;;;17.30;99.90;;;;;;5034919;28;25068;-71
2021/07/18 01:49:03;;;;;;;18.33;6.68;;;17.40;99.90;;;;;;5025450;28;25138;-72
2021/07/18 01:51:29;;;;;;;14.23;6.18;;;17.30;99.90;;;;;;5024776;28;25075;-71
2021/07/18 01:53:59;;;;;;;13.88;6.30;;;17.30;99.90;;;;;;5029093;28;25119;-71
2021/07/18 01:56:26;;;;;;;10.43;6.28;;;17.30;99.90;;;;;;5026532;28;25144;-70
2021/07/18 01:58:53;;;;;;;24.02;8.85;;;17.20;99.90;;;;;;5025275;28;25157;-71
2021/07/18 02:01:23;;;;;;;15.68;7.03;;;17.20;99.90;;;;;;5024992;28;25145;-71
2021/07/18 02:03:49;;;;;;;8.77;6.25;;;17.20;99.90;;;;;;5036565;28;25110;-70
2021/07/18 02:06:15;;;;;;;9.18;6.07;;;17.20;99.90;;;;;;5035095;28;25099;-70
2021/07/18 02:08:41;;;;;;;12.77;6.60;;;17.20;99.90;;;;;;5028858;28;25060;-71
2021/07/18 02:11:07;;;;;;;13.00;6.90;;;17.20;99.90;;;;;;5034643;28;25088;-73
2021/07/18 02:13:33;;;;;;;16.35;6.40;;;17.10;99.90;;;;;;5025671;28;25117;-72
2021/07/18 02:16:00;;;;;;;13.50;6.85;;;17.20;99.90;;;;;;5040552;28;25078;-71
2021/07/18 02:18:26;;;;;;;11.70;6.20;;;17.20;99.90;;;;;;5039412;28;25096;-72
2021/07/18 02:20:54;;;;;;;19.85;7.50;;;17.20;99.90;;;;;;5032387;28;25100;-72
2021/07/18 02:23:21;;;;;;;10.63;6.40;;;17.10;99.90;;;;;;5007501;28;25064;-71
2021/07/18 02:25:47;;;;;;;13.02;6.68;;;17.10;99.90;;;;;;5039012;28;24955;-72
2021/07/18 02:28:12;;;;;;;12.02;6.80;;;17.10;99.90;;;;;;5044082;28;25117;-70
2021/07/18 02:30:38;;;;;;;13.43;6.97;;;17.10;99.90;;;;;;5039353;28;25096;-74
2021/07/18 02:33:04;;;;;;;10.05;6.80;;;17.10;99.90;;;;;;5040344;28;25064;-72
2021/07/18 02:35:30;;;;;;;15.07;6.80;;;17.10;99.90;;;;;;5007405;28;25064;-70
2021/07/18 02:37:56;;;;;;;9.10;6.55;;;17.20;99.90;;;;;;5025423;28;25141;-71
2021/07/18 02:40:22;;;;;;;14.25;6.90;;;17.20;99.90;;;;;;5003059;28;25126;-70
2021/07/18 02:42:49;;;;;;;9.55;6.82;;;17.20;99.90;;;;;;5019365;28;25187;-73
2021/07/18 02:45:17;;;;;;;11.27;6.70;;;17.20;99.90;;;;;;5006579;28;25100;-70
2021/07/18 02:47:43;;;;;;;11.93;6.30;;;17.10;99.90;;;;;;5024672;28;25067;-70
2021/07/18 02:50:11;;;;;;;10.90;6.63;;;17.10;99.90;;;;;;5008405;28;25070;-72
2021/07/18 02:52:37;;;;;;;10.55;6.50;;;17.10;99.90;;;;;;5026341;28;25170;-72
2021/07/18 02:55:05;;;;;;;9.70;6.45;;;17.10;99.90;;;;;;5021730;28;25107;-72
2021/07/18 02:57:31;;;;;;;11.05;6.75;;;17.10;99.90;;;;;;5023769;28;25104;-71
2021/07/18 02:59:56;;;;;;;10.07;6.60;;;17.10;99.90;;;;;;5024888;28;25117;-72
2021/07/18 03:02:22;;;;;;;10.38;6.32;;;17.00;99.90;;;;;;5034595;28;25103;-72
2021/07/18 03:04:47;;;;;;;10.00;6.00;;;17.00;99.90;;;;;;5023578;28;25124;-73
2021/07/18 03:07:13;;;;;;;13.18;6.78;;;17.00;99.90;;;;;;5024205;28;25057;-70
2021/07/18 03:09:39;;;;;;;9.02;6.75;;;17.00;99.90;;;;;;5024345;28;25154;-72
2021/07/18 03:12:05;;;;;;;9.75;6.18;;;17.00;99.90;;;;;;5008245;28;25065;-71
2021/07/18 03:14:32;;;;;;;11.60;6.65;;;16.90;99.90;;;;;;5026377;28;25071;-75
2021/07/18 03:16:58;;;;;;;11.48;6.97;;;16.90;99.90;;;;;;5030150;28;25110;-73
2021/07/18 03:19:23;;;;;;;9.30;6.38;;;16.90;99.90;;;;;;5006825;28;25098;-70
2021/07/18 03:21:49;;;;;;;12.57;7.10;;;16.90;99.90;;;;;;5026077;28;25058;-71
2021/07/18 03:24:15;;;;;;;10.05;6.40;;;16.90;99.90;;;;;;5027252;28;25082;-71
2021/07/18 03:26:41;;;;;;;8.10;7.07;;;16.90;99.90;;;;;;5025475;28;25069;-71
2021/07/18 03:29:07;;;;;;;17.70;7.60;;;16.90;99.90;;;;;;5024342;28;25047;-71
2021/07/18 03:31:33;;;;;;;9.65;6.07;;;16.80;99.90;;;;;;5025623;28;25153;-73
2021/07/18 03:33:59;;;;;;;8.98;6.20;;;16.90;99.90;;;;;;5021341;28;25069;-70
2021/07/18 03:36:24;;;;;;;12.52;7.13;;;16.90;99.90;;;;;;5023445;28;25054;-71
2021/07/18 03:38:50;;;;;;;16.15;6.65;;;16.90;99.90;;;;;;5025949;28;25067;-72
2021/07/18 03:41:19;;;;;;;9.85;6.50;;;16.90;99.90;;;;;;5024215;28;25082;-71
2021/07/18 03:43:45;;;;;;;14.32;7.15;;;16.90;99.90;;;;;;5029036;28;25118;-70
2021/07/18 03:46:11;;;;;;;9.75;7.25;;;16.90;99.90;;;;;;5033416;28;25098;-71
2021/07/18 03:48:37;;;;;;;12.38;7.40;;;16.80;99.90;;;;;;5003771;28;25085;-71
2021/07/18 03:51:02;;;;;;;16.00;6.68;;;16.90;99.90;;;;;;5030669;28;25071;-69
2021/07/18 03:53:28;;;;;;;16.85;7.78;;;16.90;99.90;;;;;;5032465;28;25110;-73
2021/07/18 03:55:53;;;;;;;12.85;7.82;;;16.90;99.90;;;;;;5032344;28;25078;-70
2021/07/18 03:58:19;;;;;;;8.50;7.38;;;16.90;99.90;;;;;;5032884;28;25096;-73
2021/07/18 04:00:46;;;;;;;9.32;7.53;;;17.00;99.90;;;;;;5033430;28;25106;-71
2021/07/18 04:03:11;;;;;;;12.52;7.10;;;17.00;99.90;;;;;;5019458;28;25073;-71
2021/07/18 04:05:38;;;;;;;13.40;7.85;;;17.00;99.90;;;;;;5034048;28;25060;-70
2021/07/18 04:08:04;;;;;;;12.38;6.82;;;17.00;99.90;;;;;;5025954;28;25065;-71
2021/07/18 04:10:30;;;;;;;12.32;6.85;;;17.00;99.90;;;;;;5034242;28;25078;-71
2021/07/18 04:12:57;;;;;;;9.68;7.38;;;17.10;99.90;;;;;;5033058;28;25065;-71
2021/07/18 04:15:23;;;;;;;8.55;6.65;;;17.00;99.90;;;;;;5016427;28;25058;-72
2021/07/18 04:17:49;;;;;;;6.88;6.25;;;17.10;99.90;;;;;;5023822;28;25101;-72
2021/07/18 04:20:15;;;;;;;11.20;7.80;;;17.10;99.90;;;;;;5038708;28;25084;-71
2021/07/18 04:22:40;;;;;;;12.13;6.88;;;17.00;99.90;;;;;;5037088;28;25077;-71
2021/07/18 04:25:06;;;;;;;9.20;6.75;;;17.00;99.90;;;;;;5017609;28;25058;-71
2021/07/18 04:27:33;;;;;;;12.18;8.00;;;17.00;99.90;;;;;;5035389;28;25075;-73
2021/07/18 04:29:59;;;;;;;9.90;6.88;;;17.00;99.90;;;;;;5029167;28;25087;-71
2021/07/18 04:32:24;;;;;;;7.80;5.97;;;17.00;99.90;;;;;;5029474;28;25152;-70
2021/07/18 04:34:50;;;;;;;12.35;6.55;;;17.00;99.90;;;;;;5027273;28;25109;-73
2021/07/18 04:37:15;;;;;;;10.80;6.18;;;17.10;99.90;;;;;;5030523;28;25068;-70
2021/07/18 04:39:41;;;;;;;9.50;5.32;;;17.10;99.90;;;;;;5021575;28;25049;-70
2021/07/18 04:42:07;;;;;;;7.65;6.13;;;17.10;99.90;;;;;;5020927;28;25055;-72
2021/07/18 04:44:33;;;;;;;10.45;5.95;;;17.10;99.90;;;;;;5025833;28;25106;-72
2021/07/18 04:46:59;;;;;;;11.32;6.25;;;17.20;99.90;;;;;;5027171;28;25088;-71
2021/07/18 04:49:26;;;;;;;9.60;6.25;;;17.20;99.90;;;;;;5025884;28;25105;-69
2021/07/18 04:51:55;;;;;;;9.85;6.78;;;17.30;99.90;;;;;;5025499;28;25529;-69
2021/07/18 04:54:21;;;;;;;7.25;6.38;;;17.40;99.90;;;;;;5023390;28;25075;-70
2021/07/18 04:56:47;;;;;;;8.20;6.00;;;17.50;99.90;;;;;;5028449;28;25139;-71
2021/07/18 04:59:13;;;;;;;8.55;7.18;;;17.60;99.90;;;;;;5018077;28;25073;-71
2021/07/18 05:01:38;;;;;;;8.82;6.80;;;17.60;99.90;;;;;;5027170;28;25078;-71
2021/07/18 05:04:04;;;;;;;7.93;5.80;;;17.60;99.90;;;;;;5023031;28;25163;-70
2021/07/18 05:06:32;;;;;;;13.57;5.82;;;17.70;99.90;;;;;;5031518;28;25104;-72
2021/07/18 05:08:59;;;;;;;8.02;5.45;;;17.70;99.90;;;;;;5037054;28;25083;-74
2021/07/18 05:11:25;;;;;;;11.75;6.85;;;17.80;99.90;;;;;;5039267;28;25367;-71
2021/07/18 05:14:08;;;;;;;8.15;5.85;;;17.80;99.90;;;;;;5036200;28;25113;-72
2021/07/18 05:16:33;;;;;;;7.70;5.97;;;17.80;99.90;;;;;;5037182;28;25070;-74
2021/07/18 05:18:59;;;;;;;13.38;5.25;;;17.80;99.90;;;;;;5039704;28;25125;-77
2021/07/18 05:21:27;;;;;;;9.82;5.60;;;17.80;99.90;;;;;;5037144;28;25068;-73
2021/07/18 05:24:00;;;;;;;9.00;4.72;;;17.90;99.90;;;;;;5046960;28;25061;-74
2021/07/18 05:26:26;;;;;;;6.15;4.28;;;17.80;99.90;;;;;;5041809;28;25056;-77
2021/07/18 05:28:52;;;;;;;7.07;4.78;;;18.00;99.90;;;;;;5050613;28;25070;-73
2021/07/18 05:31:18;;;;;;;6.55;4.25;;;18.00;99.90;;;;;;5044635;28;25060;-75
2021/07/18 05:33:43;;;;;;;5.60;4.43;;;18.10;99.90;;;;;;5046468;28;25057;-70
2021/07/18 05:36:11;;;;;;;7.38;4.60;;;18.20;99.90;;;;;;5029753;28;25073;-73
2021/07/18 05:38:37;;;;;;;8.77;4.53;;;18.30;99.90;;;;;;5037429;28;25074;-70
2021/07/18 05:41:05;;;;;;;6.70;4.50;;;18.40;99.90;;;;;;5017635;28;25089;-71
2021/07/18 05:43:31;;;;;;;7.70;4.32;;;18.30;99.90;;;;;;5038285;28;25125;-73
2021/07/18 05:45:57;;;;;;;9.50;4.90;;;18.30;99.90;;;;;;5046386;28;25077;-74
2021/07/18 05:48:25;;;;;;;10.05;4.97;;;18.40;99.90;;;;;;5015964;28;25071;-75
2021/07/18 05:50:52;;;;;;;7.88;4.53;;;18.40;99.90;;;;;;5031295;28;25060;-72
2021/07/18 05:53:17;;;;;;;8.48;4.63;;;18.40;99.90;;;;;;5033854;28;25078;-73
2021/07/18 05:55:45;;;;;;;9.15;5.05;;;18.50;99.90;;;;;;5030123;28;25111;-69
2021/07/18 05:58:11;;;;;;;9.45;5.55;;;18.50;99.90;;;;;;5030696;28;25114;-74
2021/07/18 06:00:40;;;;;;;10.50;4.85;;;18.60;99.90;;;;;;5010175;28;25070;-71
2021/07/18 06:03:05;;;;;;;12.65;6.07;;;18.70;99.90;;;;;;5013732;28;25054;-71
2021/07/18 06:05:31;;;;;;;10.80;4.38;;;18.80;99.90;;;;;;5027059;28;25057;-71
2021/07/18 06:07:57;;;;;;;9.13;4.65;;;18.90;99.90;;;;;;5029630;28;25133;-72
2021/07/18 06:10:29;;;;;;;11.27;4.40;;;19.00;99.90;;;;;;5022024;28;25104;-73
2021/07/18 06:12:55;;;;;;;8.43;4.85;;;19.20;99.90;;;;;;5053032;28;25062;-73
2021/07/18 06:15:32;;;;;;;9.30;4.82;;;19.40;99.90;;;;;;5049212;28;25078;-76
2021/07/18 06:17:58;;;;;;;12.40;4.22;;;19.40;99.90;;;;;;5031714;28;25101;-72
2021/07/18 06:20:23;;;;;;;8.20;3.63;;;19.40;99.90;;;;;;5014529;28;25090;-74
2021/07/18 06:22:51;;;;;;;6.47;3.83;;;19.60;99.90;;;;;;5030343;28;25172;-73
2021/07/18 06:25:17;;;;;;;12.15;4.20;;;19.70;99.90;;;;;;5031637;28;25075;-71
2021/07/18 06:27:43;;;;;;;7.50;3.40;;;19.80;99.90;;;;;;5017781;28;25107;-71
2021/07/18 06:30:14;;;;;;;8.35;3.28;;;19.90;99.90;;;;;;5019609;28;25151;-71
2021/07/18 06:32:40;;;;;;;8.38;3.20;;;19.90;99.90;;;;;;5024334;28;25120;-74
2021/07/18 06:35:07;;;;;;;4.10;2.88;;;20.10;99.90;;;;;;5022448;28;25059;-71
2021/07/18 06:37:33;;;;;;;7.75;2.90;;;20.10;99.90;;;;;;5011069;28;25137;-71
2021/07/18 06:40:00;;;;;;;5.50;3.28;;;20.50;99.90;;;;;;5024804;28;25063;-72
2021/07/18 06:42:25;;;;;;;6.00;2.60;;;20.50;99.90;;;;;;5032144;28;25154;-71
2021/07/18 06:44:51;;;;;;;7.85;2.78;;;20.40;99.90;;;;;;5017638;28;25164;-69
2021/07/18 06:47:17;;;;;;;5.70;2.40;;;20.40;99.90;;;;;;5025565;28;25064;-71
2021/07/18 06:49:43;;;;;;;4.28;2.17;;;20.50;99.90;;;;;;5027532;28;25081;-71
2021/07/18 06:52:09;;;;;;;6.07;2.53;;;20.30;99.90;;;;;;5009690;28;25058;-70
2021/07/18 06:54:35;;;;;;;4.53;1.95;;;20.30;99.90;;;;;;5027619;28;25108;-72
2021/07/18 06:57:00;;;;;;;5.60;2.40;;;20.30;99.90;;;;;;5025149;28;25129;-72
2021/07/18 06:59:26;;;;;;;5.53;2.53;;;20.40;99.90;;;;;;5026359;28;25056;-71
2021/07/18 07:01:52;;;;;;;3.15;2.35;;;20.50;99.90;;;;;;5029031;28;25067;-69
2021/07/18 07:04:17;;;;;;;7.07;2.38;;;20.60;99.90;;;;;;5028818;28;25064;-73
2021/07/18 07:06:43;;;;;;;4.55;2.17;;;20.80;99.90;;;;;;5017664;28;25067;-71
2021/07/18 07:09:08;;;;;;;3.28;2.13;;;20.90;99.90;;;;;;5028629;28;25075;-76
2021/07/18 07:11:34;;;;;;;5.07;2.28;;;20.90;99.90;;;;;;5013211;28;25081;-71
2021/07/18 07:14:00;;;;;;;6.80;2.60;;;21.20;99.90;;;;;;5028135;28;25096;-71
2021/07/18 07:16:25;;;;;;;4.90;2.45;;;21.10;99.90;;;;;;5014768;28;25107;-72
2021/07/18 07:18:52;;;;;;;4.10;2.58;;;21.20;99.90;;;;;;5009278;28;25066;-71
2021/07/18 07:21:17;;;;;;;2.55;2.10;;;21.30;99.90;;;;;;5026815;28;25082;-73
2021/07/18 07:23:43;;;;;;;7.22;2.20;;;21.20;99.90;;;;;;5025801;28;25129;-73
2021/07/18 07:26:09;;;;;;;4.05;2.30;;;21.30;99.90;;;;;;5031475;28;25120;-73
2021/07/18 07:28:35;;;;;;;3.45;1.98;;;21.40;99.90;;;;;;5025977;28;25083;-74
2021/07/18 07:31:04;;;;;;;5.85;2.30;;;21.30;99.90;;;;;;5036925;28;25110;-73
2021/07/18 07:33:33;;;;;;;4.22;2.10;;;21.50;99.90;;;;;;5025463;28;25127;-72
2021/07/18 07:36:04;;;;;;;3.88;1.95;;;21.40;99.90;;;;;;5024170;28;25072;-75
2021/07/18 07:38:33;;;;;;;4.88;2.03;;;21.50;99.90;;;;;;5040609;28;25078;-73
2021/07/18 07:41:04;;;;;;;4.10;1.90;;;21.60;99.90;;;;;;5040490;28;25087;-72
2021/07/18 07:43:32;;;;;;;7.40;2.03;;;21.90;99.90;;;;;;5044671;28;25081;-76
2021/07/18 07:45:57;;;;;;;3.53;1.95;;;22.40;99.90;;;;;;5040794;28;25079;-74
2021/07/18 07:48:23;;;;;;;2.83;1.80;;;22.00;99.90;;;;;;5040609;28;25066;-76
2021/07/18 07:50:49;;;;;;;3.35;1.83;;;22.10;99.90;;;;;;5027593;28;25125;-73
2021/07/18 07:53:15;;;;;;;3.28;1.52;;;22.40;99.90;;;;;;5028389;28;25083;-73
2021/07/18 07:55:42;;;;;;;3.15;1.40;;;22.30;99.90;;;;;;5026650;28;25081;-72
2021/07/18 07:58:11;;;;;;;6.13;1.98;;;22.70;99.90;;;;;;5026156;28;25092;-75
2021/07/18 08:00:37;;;;;;;4.15;1.95;;;22.90;99.90;;;;;;5027784;28;25092;-72
2021/07/18 08:03:03;;;;;;;3.42;1.90;;;22.80;99.90;;;;;;5018891;28;25092;-77
2021/07/18 08:05:29;;;;;;;3.05;1.70;;;22.80;99.90;;;;;;5021528;28;25073;-72
2021/07/18 08:08:03;;;;;;;2.78;1.58;;;22.30;99.90;;;;;;5004413;28;25104;-71
2021/07/18 08:10:31;;;;;;;1.70;1.60;;;22.30;99.90;;;;;;5041920;28;25067;-72
2021/07/18 08:13:05;;;;;;;4.35;2.15;;;22.40;99.90;;;;;;5037576;28;25106;-79
2021/07/18 08:15:38;;;;;;;1.55;1.45;;;22.30;99.90;;;;;;5042104;28;25088;-72
2021/07/18 08:18:10;;;;;;;6.95;2.60;;;22.40;99.90;;;;;;5044732;28;25098;-80
2021/07/18 08:20:36;;;;;;;3.67;2.00;;;22.40;99.90;;;;;;5044770;28;25076;-78
2021/07/18 08:23:02;;;;;;;3.13;1.73;;;22.40;99.90;;;;;;5043890;28;25050;-77
2021/07/18 08:25:29;;;;;;;6.75;2.40;;;22.20;99.90;;;;;;5040658;28;25077;-81
2021/07/18 08:27:55;;;;;;;3.35;1.48;;;22.30;99.90;;;;;;5039926;28;25074;-82
2021/07/18 08:30:28;;;;;;;6.07;1.90;;;22.60;99.90;;;;;;5042121;28;25089;-81
2021/07/18 08:32:54;;;;;;;5.13;1.52;;;22.90;99.90;;;;;;5040379;28;25078;-79
2021/07/18 08:35:21;;;;;;;6.43;1.77;;;23.00;99.90;;;;;;5036897;28;25070;-76
2021/07/18 08:37:47;;;;;;;2.85;1.70;;;22.90;99.90;;;;;;5027698;28;25055;-74
2021/07/18 08:40:13;;;;;;;1.52;1.42;;;23.00;99.90;;;;;;5037337;28;25079;-77
2021/07/18 08:42:40;;;;;;;3.35;1.75;;;22.80;99.90;;;;;;5035134;28;25063;-71
2021/07/18 08:45:07;;;;;;;4.55;1.65;;;22.70;99.90;;;;;;5029087;28;25131;-71
2021/07/18 08:47:33;;;;;;;3.97;1.80;;;22.80;99.90;;;;;;5030384;28;25162;-75
2021/07/18 08:49:59;;;;;;;4.45;1.58;;;22.60;99.90;;;;;;5024105;28;25061;-74
2021/07/18 08:52:25;;;;;;;5.43;1.50;;;22.80;99.90;;;;;;5029180;28;25125;-72
2021/07/18 08:54:52;;;;;;;5.53;1.83;;;23.00;99.90;;;;;;5028517;28;25124;-74
2021/07/18 08:57:23;;;;;;;4.60;1.67;;;23.40;99.90;;;;;;5028221;28;25098;-74
2021/07/18 08:59:51;;;;;;;5.05;1.85;;;23.90;99.90;;;;;;5041652;28;25060;-74
2021/07/18 09:02:18;;;;;;;22.27;1.90;;;24.20;99.90;;;;;;5035981;28;25127;-73
2021/07/18 09:04:44;;;;;;;3.45;1.70;;;24.00;99.90;;;;;;5002684;28;25076;-73
2021/07/18 09:07:14;;;;;;;4.55;1.85;;;24.10;99.90;;;;;;5024114;28;25071;-73
2021/07/18 09:09:40;;;;;;;3.33;1.80;;;24.00;99.90;;;;;;5019899;28;25091;-74
2021/07/18 09:12:14;;;;;;;3.65;1.80;;;24.00;99.90;;;;;;5003530;28;25077;-71
2021/07/18 09:14:42;;;;;;;4.85;1.73;;;24.20;99.90;;;;;;5026608;28;25049;-74
2021/07/18 09:17:13;;;;;;;2.55;1.67;;;24.20;99.90;;;;;;5030155;28;25111;-75
2021/07/18 09:19:43;;;;;;;4.30;1.77;;;24.00;99.90;;;;;;5023138;28;25129;-73
2021/07/18 09:22:10;;;;;;;4.00;1.80;;;23.90;99.90;;;;;;5020174;28;25095;-71
2021/07/18 09:24:59;;;;;;;4.95;1.77;;;23.70;99.90;;;;;;5020430;28;25076;-75
2021/07/18 09:27:33;;;;;;;2.83;1.73;;;23.70;99.90;;;;;;5021477;28;25110;-68
2021/07/18 09:30:08;;;;;;;5.30;2.53;;;23.90;99.90;;;;;;5016009;28;25057;-73
2021/07/18 09:32:40;;;;;;;3.65;1.98;;;24.20;99.90;;;;;;5014368;28;25468;-71
2021/07/18 09:35:13;;;;;;;4.47;2.05;;;24.40;99.90;;;;;;5022219;28;25123;-73
2021/07/18 09:37:43;;;;;;;7.18;2.25;;;24.20;99.90;;;;;;5024548;28;25075;-77
2021/07/18 09:40:15;;;;;;;5.00;1.70;;;24.50;99.90;;;;;;5028937;28;25152;-74
2021/07/18 09:42:48;;;;;;;3.00;1.90;;;24.60;99.90;;;;;;5021539;28;25105;-73
2021/07/18 09:45:23;;;;;;;4.65;2.33;;;24.40;99.90;;;;;;5028948;28;25062;-74
2021/07/18 09:48:06;;;;;;;5.97;2.00;;;24.30;99.90;;;;;;5021288;28;25093;-73
2021/07/18 09:50:37;;;;;;;5.93;1.95;;;24.30;99.90;;;;;;5020207;28;25134;-73
2021/07/18 09:53:08;;;;;;;4.55;1.73;;;24.60;99.90;;;;;;5021151;28;25067;-71
2021/07/18 09:55:34;;;;;;;4.93;2.05;;;24.70;99.90;;;;;;5023812;28;25130;-75
2021/07/18 09:58:00;;;;;;;3.45;1.98;;;24.60;99.90;;;;;;5008104;28;25070;-72
2021/07/18 10:00:41;;;;;;;4.70;1.92;;;24.40;99.90;;;;;;5031121;28;25123;-79
2021/07/18 10:03:13;;;;;;;2.50;1.90;;;24.30;99.90;;;;;;5017243;28;25100;-77
2021/07/18 10:05:40;;;;;;;4.72;2.22;;;24.30;99.90;;;;;;5022217;28;25058;-75
2021/07/18 10:08:10;;;;;;;9.98;2.08;;;24.40;99.90;;;;;;5022456;28;25082;-72
2021/07/18 10:10:38;;;;;;;4.60;2.10;;;24.40;99.90;;;;;;5013407;28;25078;-70
2021/07/18 10:13:17;;;;;;;4.63;2.03;;;24.30;99.90;;;;;;5022960;28;25118;-72
2021/07/18 10:15:45;;;;;;;6.50;2.20;;;24.60;99.90;;;;;;5040138;28;25104;-74
2021/07/18 10:18:22;;;;;;;4.82;2.08;;;24.70;99.90;;;;;;5019987;28;25061;-78
2021/07/18 10:20:54;;;;;;;5.95;2.10;;;24.70;99.90;;;;;;5033737;28;25097;-75
2021/07/18 10:23:22;;;;;;;4.90;1.85;;;25.00;99.90;;;;;;5035611;28;25068;-74
2021/07/18 10:25:52;;;;;;;6.30;1.95;;;25.40;99.90;;;;;;5046561;28;25078;-79
2021/07/18 10:28:24;;;;;;;4.80;1.95;;;25.60;99.90;;;;;;5051373;28;25098;-73
2021/07/18 10:30:53;;;;;;;3.88;1.60;;;25.10;99.90;;;;;;5052504;28;25081;-79
2021/07/18 10:33:20;;;;;;;2.60;1.58;;;25.00;99.90;;;;;;5044546;28;25069;-78
2021/07/18 10:35:47;;;;;;;4.78;1.90;;;25.10;99.90;;;;;;5028219;28;25072;-70
2021/07/18 10:38:18;;;;;;;3.53;1.95;;;25.10;99.90;;;;;;5038351;28;25055;-77
2021/07/18 10:40:51;;;;;;;6.27;2.47;;;25.20;99.90;;;;;;5028254;28;25057;-75
2021/07/18 10:43:37;;;;;;;4.65;1.73;;;25.10;99.90;;;;;;5010580;28;25100;-74
2021/07/18 10:46:04;;;;;;;8.93;2.03;;;25.20;99.90;;;;;;5021787;28;25075;-76
2021/07/18 10:48:52;;;;;;;4.00;1.77;;;25.40;99.90;;;;;;5018605;28;25090;-75
2021/07/18 10:51:19;;;;;;;3.80;1.88;;;25.50;99.90;;;;;;5020644;28;25078;-74
2021/07/18 10:53:49;;;;;;;4.07;1.80;;;25.70;99.90;;;;;;5027945;28;25078;-74
2021/07/18 10:56:37;;;;;;;4.15;1.80;;;25.80;99.90;;;;;;5028288;28;25091;-78
2021/07/18 10:59:03;;;;;;;4.05;1.80;;;25.70;99.90;;;;;;5028138;28;25095;-73
2021/07/18 11:01:31;;;;;;;2.90;1.80;;;25.50;99.90;;;;;;5010824;28;25090;-74
2021/07/18 11:03:58;;;;;;;3.33;1.98;;;25.40;99.90;;;;;;5025212;28;25104;-73
2021/07/18 11:06:28;;;;;;;7.43;2.17;;;25.40;99.90;;;;;;5014843;28;25105;-77
2021/07/18 11:09:12;;;;;;;5.10;1.90;;;25.50;99.90;;;;;;5030780;28;25081;-74
2021/07/18 11:11:56;;;;;;;2.90;2.17;;;25.50;99.90;;;;;;5025874;28;25077;-74
2021/07/18 11:14:36;;;;;;;2.97;2.30;;;25.60;99.90;;;;;;5030017;28;25060;-74
2021/07/18 11:17:07;;;;;;;5.75;2.58;;;25.60;99.90;;;;;;5010326;28;25090;-73
2021/07/18 11:19:38;;;;;;;4.72;2.20;;;25.40;99.90;;;;;;5030646;28;25140;-74
2021/07/18 11:22:06;;;;;;;1.75;1.65;;;25.70;99.90;;;;;;5031528;28;25076;-73
2021/07/18 11:24:55;;;;;;;4.43;2.08;;;25.70;99.90;;;;;;5026583;28;25082;-74
2021/07/18 11:27:28;;;;;;;4.25;2.40;;;25.80;99.90;;;;;;5027855;28;25066;-76
2021/07/18 11:29:56;;;;;;;2.67;1.80;;;25.80;99.90;;;;;;5033054;28;25163;-76
2021/07/18 11:32:27;;;;;;;3.90;2.45;;;26.00;99.90;;;;;;5036145;28;25066;-75
2021/07/18 11:34:55;;;;;;;4.40;2.25;;;26.20;99.90;;;;;;5024716;28;25114;-73
2021/07/18 11:37:28;;;;;;;5.10;2.05;;;26.20;99.90;;;;;;5031622;28;25081;-74
2021/07/18 11:40:03;;;;;;;8.50;2.35;;;25.90;99.90;;;;;;5024507;28;25102;-74
2021/07/18 11:42:28;;;;;;;3.70;1.85;;;26.00;99.90;;;;;;5009035;28;25098;-75
2021/07/18 11:44:54;;;;;;;5.38;2.38;;;26.10;99.90;;;;;;5022723;28;25069;-72
2021/07/18 11:47:23;;;;;;;3.40;2.15;;;25.90;99.90;;;;;;5025660;28;25076;-73
2021/07/18 11:49:51;;;;;;;4.00;2.50;;;26.00;99.90;;;;;;5024752;28;25070;-75
2021/07/18 11:52:18;;;;;;;3.65;2.08;;;26.30;99.90;;;;;;5032303;28;25111;-73
2021/07/18 11:54:45;;;;;;;5.13;2.30;;;26.20;99.90;;;;;;5032454;28;25162;-73
2021/07/18 11:57:16;;;;;;;6.28;2.30;;;26.10;99.90;;;;;;5017682;28;25074;-76
2021/07/18 11:59:44;;;;;;;5.65;2.20;;;26.00;99.90;;;;;;5023320;28;25167;-75
2021/07/18 12:02:12;;;;;;;2.72;1.83;;;26.40;99.90;;;;;;5019308;28;25082;-73
2021/07/18 12:04:40;;;;;;;4.60;2.35;;;26.40;99.90;;;;;;5036655;28;25102;-70
2021/07/18 12:07:07;;;;;;;5.93;2.38;;;26.30;99.90;;;;;;5027009;28;25071;-76
2021/07/18 12:09:46;;;;;;;2.67;2.08;;;26.50;99.90;;;;;;5029140;28;25073;-77
2021/07/18 12:12:17;;;;;;;4.60;2.20;;;26.40;99.90;;;;;;5038975;28;25142;-75
2021/07/18 12:14:45;;;;;;;2.58;2.38;;;26.40;99.90;;;;;;5042520;28;25072;-76
2021/07/18 12:17:13;;;;;;;3.63;2.35;;;26.50;99.90;;;;;;5023151;28;25056;-74
2021/07/18 12:19:42;;;;;;;3.88;2.08;;;26.70;99.90;;;;;;5032821;28;25078;-72
2021/07/18 12:22:19;;;;;;;3.90;2.40;;;26.70;99.90;;;;;;5026991;28;25078;-75
2021/07/18 12:24:50;;;;;;;2.88;2.13;;;26.60;99.90;;;;;;5022013;28;25072;-74
2021/07/18 12:27:27;;;;;;;7.45;2.35;;;26.40;99.90;;;;;;5020940;28;25058;-76
2021/07/18 12:29:58;;;;;;;2.97;2.10;;;26.50;99.90;;;;;;5020052;28;25183;-75
2021/07/18 12:32:31;;;;;;;3.17;2.35;;;26.60;99.90;;;;;;5016058;28;25088;-79
2021/07/18 12:34:57;;;;;;;6.78;2.40;;;26.80;99.90;;;;;;5016782;28;25052;-73
2021/07/18 12:37:29;;;;;;;5.00;2.78;;;27.20;99.90;;;;;;5020745;28;25074;-72
2021/07/18 12:40:03;;;;;;;4.90;1.98;;;27.20;99.90;;;;;;5038341;28;25055;-76
2021/07/18 12:42:45;;;;;;;3.15;2.50;;;27.00;99.90;;;;;;5036489;28;25115;-75
2021/07/18 12:45:23;;;;;;;7.03;2.85;;;26.70;99.90;;;;;;5034955;28;25070;-75
2021/07/18 12:48:04;;;;;;;5.07;2.47;;;26.80;99.90;;;;;;5040156;28;25071;-75